createdAt,value
2018-06-29T00:00:37.340Z,26.50
2018-06-29T00:03:06.617Z,26.37
2018-06-29T00:05:35.966Z,27.13
2018-06-29T00:08:05.412Z,22.77
2018-06-29T00:10:34.820Z,22.97
2018-06-29T00:13:04.261Z,26.00
2018-06-29T00:15:33.678Z,26.80
2018-06-29T00:18:03.026Z,26.03
2018-06-29T00:20:32.373Z,24.33
2018-06-29T00:23:01.753Z,53.73
2018-06-29T00:25:31.142Z,26.47
2018-06-29T00:28:00.527Z,26.20
2018-06-29T00:30:30.043Z,25.03
2018-06-29T00:32:59.441Z,25.70
2018-06-29T00:35:28.946Z,24.33
2018-06-29T00:37:58.337Z,26.30
2018-06-29T00:40:27.679Z,25.37
2018-06-29T00:42:57.142Z,22.53
2018-06-29T00:45:26.525Z,24.07
2018-06-29T00:47:55.878Z,24.33
2018-06-29T00:50:25.263Z,24.10
2018-06-29T00:52:54.563Z,26.73
2018-06-29T00:55:24.036Z,27.47
2018-06-29T00:57:53.283Z,25.03
2018-06-29T01:00:22.620Z,24.97
2018-06-29T01:02:52.003Z,26.60
2018-06-29T01:05:21.397Z,26.73
2018-06-29T01:07:50.457Z,26.67
2018-06-29T01:10:19.776Z,26.40
2018-06-29T01:12:49.181Z,26.70
2018-06-29T01:15:18.575Z,25.17
2018-06-29T01:17:47.973Z,27.00
2018-06-29T01:20:17.325Z,27.33
2018-06-29T01:22:46.686Z,26.67
2018-06-29T01:25:16.116Z,22.93
2018-06-29T01:27:45.516Z,25.27
2018-06-29T01:30:14.886Z,23.43
2018-06-29T01:32:44.293Z,25.67
2018-06-29T01:35:13.657Z,27.23
2018-06-29T01:37:43.060Z,25.60
2018-06-29T01:40:12.435Z,27.17
2018-06-29T01:42:41.849Z,25.83
2018-06-29T01:45:11.226Z,27.40
2018-06-29T01:47:40.647Z,24.40
2018-06-29T01:50:10.006Z,28.30
2018-06-29T01:52:39.582Z,25.73
2018-06-29T01:55:08.937Z,24.97
2018-06-29T01:57:38.289Z,23.00
2018-06-29T02:00:07.716Z,25.40
2018-06-29T02:02:43.753Z,25.83
2018-06-29T02:05:13.195Z,23.93
2018-06-29T02:07:42.543Z,25.60
2018-06-29T02:10:12.029Z,25.80
2018-06-29T02:12:41.372Z,25.73
2018-06-29T02:15:10.761Z,24.57
2018-06-29T02:17:40.165Z,27.00
2018-06-29T02:20:09.598Z,28.33
2018-06-29T02:22:38.978Z,27.33
2018-06-29T02:25:08.367Z,25.10
2018-06-29T02:27:37.947Z,25.10
2018-06-29T02:30:08.012Z,25.60
2018-06-29T02:32:37.449Z,25.00
2018-06-29T02:35:06.805Z,27.13
2018-06-29T02:37:36.183Z,28.33
2018-06-29T02:40:05.977Z,27.50
2018-06-29T02:42:35.378Z,26.97
2018-06-29T02:45:04.825Z,25.57
2018-06-29T02:47:34.424Z,26.23
2018-06-29T02:50:03.955Z,26.40
2018-06-29T02:52:33.321Z,25.20
2018-06-29T02:55:02.726Z,24.70
2018-06-29T02:57:32.143Z,23.47
2018-06-29T03:00:01.541Z,26.17
2018-06-29T03:02:30.938Z,25.63
2018-06-29T03:05:00.365Z,26.27
2018-06-29T03:07:29.745Z,25.37
2018-06-29T03:09:59.254Z,26.73
2018-06-29T03:12:28.742Z,24.90
2018-06-29T03:14:58.657Z,24.73
2018-06-29T03:17:28.102Z,26.20
2018-06-29T03:19:57.600Z,24.53
2018-06-29T03:22:27.023Z,25.07
2018-06-29T03:24:56.659Z,26.27
2018-06-29T03:27:26.065Z,24.60
2018-06-29T03:29:57.066Z,21.83
2018-06-29T03:32:26.429Z,26.07
2018-06-29T03:34:55.774Z,23.97
2018-06-29T03:37:25.370Z,23.93
2018-06-29T03:39:54.792Z,24.40
2018-06-29T03:42:24.200Z,23.87
2018-06-29T03:44:53.507Z,23.03
2018-06-29T03:47:22.855Z,23.63
2018-06-29T03:49:52.311Z,24.63
2018-06-29T03:52:21.719Z,24.63
2018-06-29T03:54:51.065Z,24.33
2018-06-29T03:57:20.477Z,25.63
2018-06-29T03:59:49.879Z,25.73
2018-06-29T04:02:19.252Z,26.70
2018-06-29T04:04:48.678Z,27.30
2018-06-29T04:07:18.087Z,26.33
2018-06-29T04:09:47.450Z,28.60
2018-06-29T04:12:16.822Z,26.87
2018-06-29T04:14:46.187Z,26.70
2018-06-29T04:17:15.707Z,25.93
2018-06-29T04:19:45.046Z,25.30
2018-06-29T04:22:14.465Z,25.83
2018-06-29T04:24:43.842Z,25.07
2018-06-29T04:27:13.224Z,24.40
2018-06-29T04:29:42.752Z,26.00
2018-06-29T04:32:12.102Z,24.50
2018-06-29T04:34:41.486Z,25.00
2018-06-29T04:37:10.802Z,26.13
2018-06-29T04:39:40.160Z,25.80
2018-06-29T04:42:09.549Z,26.23
2018-06-29T04:44:38.890Z,25.33
2018-06-29T04:47:08.779Z,26.20
2018-06-29T04:49:38.132Z,25.37
2018-06-29T04:52:08.035Z,24.37
2018-06-29T04:54:37.689Z,27.10
2018-06-29T04:57:07.082Z,24.77
2018-06-29T04:59:36.728Z,27.10
2018-06-29T05:02:06.353Z,27.53
2018-06-29T05:04:35.878Z,25.67
2018-06-29T05:07:10.281Z,26.80
2018-06-29T05:09:39.742Z,27.47
2018-06-29T05:12:09.210Z,26.47
2018-06-29T05:14:38.557Z,27.10
2018-06-29T05:17:08.002Z,25.33
2018-06-29T05:19:37.346Z,24.60
2018-06-29T05:22:06.842Z,26.93
2018-06-29T05:24:36.213Z,26.27
2018-06-29T05:27:05.649Z,29.03
2018-06-29T05:29:35.046Z,26.00
2018-06-29T05:32:04.434Z,27.40
2018-06-29T05:34:33.837Z,25.33
2018-06-29T05:37:03.186Z,28.17
2018-06-29T05:39:32.503Z,27.43
2018-06-29T05:42:01.863Z,27.63
2018-06-29T05:44:31.288Z,24.43
2018-06-29T05:47:00.769Z,28.27
2018-06-29T05:49:30.414Z,28.70
2018-06-29T05:51:59.892Z,28.67
2018-06-29T05:54:29.485Z,28.07
2018-06-29T05:56:58.944Z,29.27
2018-06-29T05:59:28.688Z,30.73
2018-06-29T06:01:58.377Z,29.80
2018-06-29T06:04:27.975Z,31.33
2018-06-29T06:06:58.302Z,29.80
2018-06-29T06:09:27.853Z,29.17
2018-06-29T06:11:57.404Z,28.50
2018-06-29T06:14:26.961Z,27.97
2018-06-29T06:16:56.399Z,29.07
2018-06-29T06:19:42.873Z,25.57
2018-06-29T06:22:12.282Z,27.13
2018-06-29T06:24:41.798Z,26.77
2018-06-29T06:27:11.258Z,24.93
2018-06-29T06:29:40.817Z,25.53
2018-06-29T06:32:10.444Z,27.70
2018-06-29T06:34:39.899Z,25.77
2018-06-29T06:37:09.378Z,25.47
2018-06-29T06:39:38.943Z,26.20
2018-06-29T06:42:08.027Z,26.40
2018-06-29T06:44:37.497Z,24.87
2018-06-29T06:47:06.893Z,23.53
2018-06-29T06:49:36.428Z,25.10
2018-06-29T06:52:06.063Z,24.93
2018-06-29T06:54:35.687Z,25.53
2018-06-29T06:57:05.509Z,26.33
2018-06-29T06:59:35.386Z,43.93
2018-06-29T07:02:04.843Z,31.40
2018-06-29T07:04:34.255Z,30.60
2018-06-29T07:07:03.653Z,34.43
2018-06-29T07:09:33.012Z,29.80
2018-06-29T07:12:02.461Z,29.93
2018-06-29T07:14:31.825Z,30.23
2018-06-29T07:17:01.237Z,26.57
2018-06-29T07:19:30.769Z,33.30
2018-06-29T07:22:00.268Z,30.27
2018-06-29T07:24:29.732Z,28.30
2018-06-29T07:26:59.155Z,28.00
2018-06-29T07:29:28.717Z,28.50
2018-06-29T07:31:58.265Z,28.13
2018-06-29T07:34:27.835Z,24.13
2018-06-29T07:36:57.210Z,24.07
2018-06-29T07:39:26.636Z,22.73
2018-06-29T07:41:56.402Z,25.47
2018-06-29T07:44:26.473Z,25.03
2018-06-29T07:46:55.893Z,26.00
2018-06-29T07:49:25.301Z,24.43
2018-06-29T07:51:54.838Z,20.43
2018-06-29T07:54:24.481Z,23.47
2018-06-29T07:56:53.863Z,24.23
2018-06-29T07:59:23.227Z,23.17
2018-06-29T08:01:52.598Z,23.00
2018-06-29T08:04:22.006Z,22.07
2018-06-29T08:06:51.120Z,21.90
2018-06-29T08:09:20.503Z,20.67
2018-06-29T08:11:50.663Z,21.43
2018-06-29T08:14:20.806Z,21.03
2018-06-29T08:16:51.047Z,22.13
2018-06-29T08:19:20.950Z,24.37
2018-06-29T08:21:50.302Z,25.77
2018-06-29T08:24:19.658Z,20.70
2018-06-29T08:26:49.067Z,24.10
2018-06-29T08:29:18.432Z,23.87
2018-06-29T08:31:47.908Z,21.83
2018-06-29T08:34:17.402Z,23.10
2018-06-29T08:36:46.853Z,24.70
2018-06-29T08:39:16.358Z,23.20
2018-06-29T08:41:46.743Z,23.27
2018-06-29T08:44:16.417Z,21.90
2018-06-29T08:46:45.826Z,23.53
2018-06-29T08:49:15.205Z,22.90
2018-06-29T08:51:44.611Z,22.63
2018-06-29T08:54:14.013Z,23.07
2018-06-29T08:56:43.433Z,23.60
2018-06-29T08:59:12.782Z,24.80
2018-06-29T09:01:42.129Z,24.77
2018-06-29T09:04:11.514Z,24.37
2018-06-29T09:06:40.909Z,22.87
2018-06-29T09:09:11.086Z,26.20
2018-06-29T09:11:40.878Z,23.03
2018-06-29T09:14:10.242Z,26.60
2018-06-29T09:16:39.623Z,27.03
2018-06-29T09:19:09.056Z,27.13
2018-06-29T09:21:38.438Z,26.17
2018-06-29T09:24:07.822Z,26.70
2018-06-29T09:26:37.213Z,29.10
2018-06-29T09:29:06.597Z,27.63
2018-06-29T09:31:36.005Z,28.07
2018-06-29T09:34:05.399Z,36.70
2018-06-29T09:36:34.880Z,27.90
2018-06-29T09:39:06.444Z,29.37
2018-06-29T09:41:35.826Z,28.77
2018-06-29T09:44:06.061Z,26.73
2018-06-29T09:46:35.510Z,26.90
2018-06-29T09:49:04.902Z,27.93
2018-06-29T09:51:34.093Z,29.67
2018-06-29T09:54:03.543Z,27.27
2018-06-29T09:56:33.056Z,29.33
2018-06-29T09:59:02.451Z,67.90
2018-06-29T10:01:31.876Z,66.53
2018-06-29T10:04:01.249Z,32.33
2018-06-29T10:06:30.975Z,27.80
2018-06-29T10:09:00.412Z,26.33
2018-06-29T10:11:29.597Z,28.80
2018-06-29T10:13:58.977Z,29.30
2018-06-29T10:16:28.383Z,26.80
2018-06-29T10:18:57.799Z,28.13
2018-06-29T10:21:27.153Z,28.17
2018-06-29T10:23:56.667Z,28.20
2018-06-29T10:26:26.099Z,31.20
2018-06-29T10:28:55.613Z,46.53
2018-06-29T10:31:24.982Z,31.87
2018-06-29T10:33:54.546Z,32.23
2018-06-29T10:36:24.547Z,32.27
2018-06-29T10:38:54.008Z,30.03
2018-06-29T10:41:23.340Z,28.50
2018-06-29T10:43:52.735Z,32.33
2018-06-29T10:46:22.105Z,31.90
2018-06-29T10:48:51.503Z,31.80
2018-06-29T10:51:20.862Z,33.30
2018-06-29T10:53:51.057Z,36.90
2018-06-29T10:56:20.425Z,30.90
2018-06-29T10:58:49.817Z,32.37
2018-06-29T11:01:19.469Z,32.27
2018-06-29T11:03:48.872Z,31.83
2018-06-29T11:06:18.278Z,33.57
2018-06-29T11:08:47.648Z,30.50
2018-06-29T11:11:17.011Z,32.43
2018-06-29T11:13:47.821Z,32.03
2018-06-29T11:16:17.913Z,30.50
2018-06-29T11:18:47.324Z,29.40
2018-06-29T11:21:17.064Z,36.33
2018-06-29T11:23:46.590Z,31.63
2018-06-29T11:26:15.992Z,32.70
2018-06-29T11:28:45.323Z,28.60
2018-06-29T11:31:14.764Z,31.20
2018-06-29T11:33:44.229Z,29.70
2018-06-29T11:36:13.713Z,31.93
2018-06-29T11:38:43.121Z,28.63
2018-06-29T11:41:12.508Z,29.87
2018-06-29T11:43:42.090Z,43.00
2018-06-29T11:46:11.474Z,63.97
2018-06-29T11:48:41.134Z,31.13
2018-06-29T11:51:10.606Z,28.87
2018-06-29T11:53:40.113Z,29.80
2018-06-29T11:56:09.558Z,29.40
2018-06-29T11:58:38.994Z,30.10
2018-06-29T12:01:08.629Z,30.77
2018-06-29T12:03:38.069Z,29.03
2018-06-29T12:06:07.473Z,34.80
2018-06-29T12:08:36.807Z,33.07
2018-06-29T12:11:06.980Z,31.80
2018-06-29T12:13:36.392Z,33.50
2018-06-29T12:16:06.320Z,32.37
2018-06-29T12:18:35.787Z,32.27
2018-06-29T12:21:05.576Z,34.77
2018-06-29T12:23:34.964Z,31.57
2018-06-29T12:26:04.379Z,31.97
2018-06-29T12:28:33.775Z,32.30
2018-06-29T12:31:03.168Z,30.67
2018-06-29T12:33:32.594Z,30.57
2018-06-29T12:36:02.074Z,35.27
2018-06-29T12:38:31.499Z,30.50
2018-06-29T12:41:01.131Z,30.90
2018-06-29T12:43:30.525Z,32.87
2018-06-29T12:46:00.036Z,30.50
2018-06-29T12:48:29.405Z,29.77
2018-06-29T12:50:58.892Z,30.07
2018-06-29T12:53:28.511Z,30.27
2018-06-29T12:55:58.041Z,30.60
2018-06-29T12:58:27.150Z,27.57
2018-06-29T13:00:56.516Z,31.73
2018-06-29T13:03:25.972Z,28.20
2018-06-29T13:05:55.436Z,33.17
2018-06-29T13:08:24.896Z,30.17
2018-06-29T13:10:54.253Z,31.70
2018-06-29T13:13:23.673Z,28.47
2018-06-29T13:15:53.119Z,29.10
2018-06-29T13:18:22.496Z,31.00
2018-06-29T13:20:53.573Z,29.00
2018-06-29T13:23:23.049Z,29.03
2018-06-29T13:25:52.417Z,26.10
2018-06-29T13:28:21.764Z,26.73
2018-06-29T13:30:51.158Z,26.43
2018-06-29T13:33:20.481Z,30.53
2018-06-29T13:35:49.887Z,27.03
2018-06-29T13:38:19.309Z,25.07
2018-06-29T13:40:48.685Z,25.57
2018-06-29T13:43:18.093Z,24.70
2018-06-29T13:45:47.670Z,24.33
2018-06-29T13:48:17.075Z,26.03
2018-06-29T13:50:46.492Z,23.50
2018-06-29T13:53:15.941Z,23.23
2018-06-29T13:55:45.317Z,21.27
2018-06-29T13:58:14.706Z,23.07
2018-06-29T14:00:44.130Z,24.90
2018-06-29T14:03:13.624Z,24.07
2018-06-29T14:05:42.970Z,21.60
2018-06-29T14:08:12.307Z,19.50
2018-06-29T14:10:41.680Z,19.40
2018-06-29T14:13:11.229Z,18.73
2018-06-29T14:15:40.594Z,19.20
2018-06-29T14:18:09.942Z,15.87
2018-06-29T14:20:39.326Z,16.43
2018-06-29T14:23:08.686Z,17.57
2018-06-29T14:25:38.062Z,17.60
2018-06-29T14:28:07.407Z,17.77
2018-06-29T14:30:36.746Z,17.70
2018-06-29T14:33:06.180Z,16.73
2018-06-29T14:35:35.638Z,18.00
2018-06-29T14:38:04.979Z,19.00
2018-06-29T14:40:34.368Z,18.83
2018-06-29T14:43:03.827Z,18.93
2018-06-29T14:45:33.285Z,18.37
2018-06-29T14:48:02.665Z,17.90
2018-06-29T14:50:32.066Z,17.57
2018-06-29T14:53:01.516Z,17.45
2018-06-29T14:55:30.990Z,16.43
2018-06-29T14:58:00.421Z,17.53
2018-06-29T15:00:29.868Z,18.73
2018-06-29T15:02:59.301Z,16.60
2018-06-29T15:05:29.753Z,18.67
2018-06-29T15:07:59.271Z,19.17
2018-06-29T15:10:28.713Z,18.20
2018-06-29T15:12:58.385Z,17.93
2018-06-29T15:15:29.029Z,18.40
2018-06-29T15:18:08.167Z,16.93
2018-06-29T15:20:37.760Z,17.30
2018-06-29T15:23:07.758Z,16.53
2018-06-29T15:25:37.092Z,17.97
2018-06-29T15:28:06.841Z,17.40
2018-06-29T15:30:36.180Z,18.17
2018-06-29T15:33:06.710Z,19.87
2018-06-29T15:35:36.458Z,24.20
2018-06-29T15:38:05.932Z,22.57
2018-06-29T15:40:35.338Z,19.00
2018-06-29T15:43:04.735Z,16.73
2018-06-29T15:45:34.076Z,17.43
2018-06-29T15:48:03.433Z,18.37
2018-06-29T15:50:32.816Z,17.50
2018-06-29T15:53:02.222Z,17.70
2018-06-29T15:55:31.610Z,17.80
2018-06-29T15:58:01.024Z,16.20
2018-06-29T16:00:30.466Z,18.07
2018-06-29T16:02:59.970Z,18.03
2018-06-29T16:05:29.353Z,16.73
2018-06-29T16:07:58.786Z,16.80
2018-06-29T16:10:28.249Z,17.57
2018-06-29T16:12:57.899Z,16.70
2018-06-29T16:15:27.722Z,16.03
2018-06-29T16:17:57.182Z,17.10
2018-06-29T16:20:26.725Z,19.63
2018-06-29T16:22:56.357Z,19.00
2018-06-29T16:25:25.774Z,19.07
2018-06-29T16:27:55.161Z,19.27
2018-06-29T16:30:24.601Z,20.33
2018-06-29T16:32:54.025Z,18.60
2018-06-29T16:35:23.457Z,17.57
2018-06-29T16:37:52.834Z,18.33
2018-06-29T16:40:22.267Z,16.67
2018-06-29T16:42:51.687Z,16.90
2018-06-29T16:45:21.116Z,17.43
2018-06-29T16:47:50.547Z,17.97
2018-06-29T16:50:19.909Z,20.30
2018-06-29T16:52:49.409Z,18.93
2018-06-29T16:55:18.823Z,20.27
2018-06-29T16:57:49.292Z,18.53
2018-06-29T17:00:18.806Z,18.80
2018-06-29T17:02:48.268Z,16.77
2018-06-29T17:05:17.786Z,18.53
2018-06-29T17:07:47.197Z,18.23
2018-06-29T17:10:16.633Z,19.70
2018-06-29T17:12:46.116Z,18.20
2018-06-29T17:15:15.547Z,18.60
2018-06-29T17:17:44.991Z,18.17
2018-06-29T17:20:14.574Z,19.40
2018-06-29T17:22:43.953Z,18.30
2018-06-29T17:25:13.365Z,18.77
2018-06-29T17:27:42.727Z,19.80
2018-06-29T17:30:12.142Z,18.37
2018-06-29T17:32:41.540Z,18.80
2018-06-29T17:35:10.913Z,18.73
2018-06-29T17:37:40.362Z,19.57
2018-06-29T17:40:09.771Z,18.93
2018-06-29T17:42:39.166Z,18.03
2018-06-29T17:45:08.635Z,19.10
2018-06-29T17:47:37.965Z,17.80
2018-06-29T17:50:07.374Z,19.07
2018-06-29T17:52:36.719Z,20.50
2018-06-29T17:55:06.274Z,17.93
2018-06-29T17:57:35.657Z,17.57
2018-06-29T18:00:06.352Z,17.27
2018-06-29T18:02:35.721Z,18.60
2018-06-29T18:05:05.929Z,18.47
2018-06-29T18:07:35.342Z,19.87
2018-06-29T18:10:04.866Z,19.03
2018-06-29T18:12:34.361Z,19.80
2018-06-29T18:15:03.710Z,18.60
2018-06-29T18:17:33.034Z,18.20
2018-06-29T18:20:02.110Z,17.93
2018-06-29T18:22:31.521Z,19.30
2018-06-29T18:25:00.954Z,18.80
2018-06-29T18:27:30.053Z,19.10
2018-06-29T18:29:59.559Z,18.20
2018-06-29T18:32:28.923Z,16.50
2018-06-29T18:34:58.444Z,18.67
2018-06-29T18:37:27.914Z,18.33
2018-06-29T18:39:57.326Z,18.10
2018-06-29T18:42:27.696Z,18.20
2018-06-29T18:44:57.167Z,18.00
2018-06-29T18:47:26.603Z,17.57
2018-06-29T18:49:56.085Z,17.63
2018-06-29T18:52:25.473Z,17.77
2018-06-29T18:54:54.888Z,17.80
2018-06-29T18:57:24.284Z,19.50
2018-06-29T18:59:53.703Z,19.17
2018-06-29T19:02:23.075Z,18.73
2018-06-29T19:04:59.342Z,18.77
2018-06-29T19:07:28.769Z,18.87
2018-06-29T19:09:58.255Z,17.03
2018-06-29T19:12:27.662Z,16.97
2018-06-29T19:14:57.199Z,18.07
2018-06-29T19:17:26.889Z,17.50
2018-06-29T19:19:56.680Z,17.13
2018-06-29T19:22:26.185Z,18.13
2018-06-29T19:24:55.744Z,18.07
2018-06-29T19:27:25.237Z,19.20
2018-06-29T19:29:54.676Z,19.07
2018-06-29T19:32:24.136Z,18.60
2018-06-29T19:34:53.605Z,18.50
2018-06-29T19:37:23.104Z,18.70
2018-06-29T19:39:52.979Z,18.70
2018-06-29T19:42:22.343Z,16.63
2018-06-29T19:44:51.741Z,17.63
2018-06-29T19:47:21.091Z,17.60
2018-06-29T19:49:50.445Z,15.80
2018-06-29T19:52:19.888Z,17.77
2018-06-29T19:54:49.280Z,17.43
2018-06-29T19:57:20.899Z,18.43
2018-06-29T19:59:50.241Z,17.50
2018-06-29T20:02:19.648Z,17.63
2018-06-29T20:04:49.082Z,18.30
2018-06-29T20:07:18.768Z,17.47
2018-06-29T20:09:48.122Z,16.97
2018-06-29T20:12:17.501Z,18.87
2018-06-29T20:14:46.954Z,17.13
2018-06-29T20:17:16.415Z,19.03
2018-06-29T20:19:46.364Z,18.47
2018-06-29T20:22:16.881Z,19.60
2018-06-29T20:24:45.985Z,19.00
2018-06-29T20:27:15.385Z,20.53
2018-06-29T20:29:44.745Z,20.13
2018-06-29T20:32:14.125Z,18.60
2018-06-29T20:34:43.537Z,18.63
2018-06-29T20:37:12.902Z,20.53
2018-06-29T20:39:42.241Z,19.73
2018-06-29T20:42:11.620Z,21.47
2018-06-29T20:44:40.989Z,20.87
2018-06-29T20:47:10.381Z,20.47
2018-06-29T20:49:39.805Z,21.43
2018-06-29T20:52:09.212Z,21.03
2018-06-29T20:54:38.980Z,19.93
2018-06-29T20:57:08.386Z,19.77
2018-06-29T20:59:37.864Z,19.77
2018-06-29T21:02:07.242Z,20.03
2018-06-29T21:04:36.703Z,18.27
2018-06-29T21:07:06.640Z,19.40
2018-06-29T21:09:36.081Z,18.73
2018-06-29T21:12:05.525Z,19.17
2018-06-29T21:14:35.152Z,19.30
2018-06-29T21:17:04.522Z,18.17
2018-06-29T21:19:33.842Z,18.83
2018-06-29T21:22:03.173Z,19.20
2018-06-29T21:24:32.572Z,20.20
2018-06-29T21:27:01.973Z,20.03
2018-06-29T21:29:31.381Z,18.57
2018-06-29T21:32:00.887Z,18.40
2018-06-29T21:34:30.313Z,19.07
2018-06-29T21:37:00.126Z,19.13
2018-06-29T21:39:29.537Z,18.70
2018-06-29T21:41:58.984Z,20.07
2018-06-29T21:44:28.374Z,19.17
2018-06-29T21:46:57.862Z,19.70
2018-06-29T21:49:27.229Z,18.03
2018-06-29T21:51:56.619Z,18.13
2018-06-29T21:54:25.854Z,19.77
2018-06-29T21:56:55.221Z,17.67
2018-06-29T21:59:24.595Z,18.17
2018-06-29T22:01:53.989Z,17.93
2018-06-29T22:04:23.381Z,18.20
2018-06-29T22:06:52.766Z,18.63
2018-06-29T22:09:22.127Z,17.47
2018-06-29T22:11:51.660Z,17.37
2018-06-29T22:14:21.069Z,18.40
2018-06-29T22:16:51.037Z,18.40
2018-06-29T22:19:20.447Z,19.60
2018-06-29T22:21:49.845Z,18.33
2018-06-29T22:24:19.317Z,16.47
2018-06-29T22:26:48.660Z,16.13
2018-06-29T22:29:18.074Z,17.30
2018-06-29T22:31:47.974Z,16.83
2018-06-29T22:34:17.602Z,16.57
2018-06-29T22:36:47.381Z,15.97
2018-06-29T22:39:17.065Z,16.50
2018-06-29T22:41:46.465Z,15.47
2018-06-29T22:44:15.915Z,16.30
2018-06-29T22:46:45.426Z,17.70
2018-06-29T22:49:14.991Z,16.53
2018-06-29T22:51:45.559Z,17.87
2018-06-29T22:54:15.069Z,16.73
2018-06-29T22:56:44.402Z,16.50
2018-06-29T22:59:13.957Z,16.10
2018-06-29T23:01:43.410Z,17.83
2018-06-29T23:04:19.126Z,17.80
2018-06-29T23:06:48.577Z,16.50
2018-06-29T23:09:18.189Z,16.70
2018-06-29T23:11:47.889Z,17.87
2018-06-29T23:14:17.293Z,17.23
2018-06-29T23:16:46.995Z,16.70
2018-06-29T23:19:16.609Z,16.40
2018-06-29T23:21:46.064Z,17.73
2018-06-29T23:24:15.482Z,18.00
2018-06-29T23:26:44.963Z,17.10
2018-06-29T23:29:14.374Z,16.70
2018-06-29T23:31:43.779Z,16.37
2018-06-29T23:34:13.123Z,15.63
2018-06-29T23:36:42.500Z,16.37
2018-06-29T23:39:12.526Z,15.90
2018-06-29T23:41:41.950Z,16.37
2018-06-29T23:44:11.345Z,15.13
2018-06-29T23:46:40.757Z,16.40
2018-06-29T23:49:09.862Z,15.83
2018-06-29T23:51:39.279Z,15.67
2018-06-29T23:54:08.701Z,15.40
2018-06-29T23:56:38.093Z,14.73
2018-06-29T23:59:07.857Z,14.27
